Time;durP1;ratioP1;P1;durP2;ratioP2;P2;SDS_P1;SDS_P2;PMS_P1;PMS_P2;Temp;Humidity;BMP_temperature;BMP_pressure;BME280_temperature;BME280_humidity;BME280_pressure;Samples;Min_cycle;Max_cycle;Signal;HPM_P1;HPM_P2
2021/12/13 16:42:44;;;;;;;7.95;4.60;;;9.00;99.90;;;;;;5110998;27;20331;-80
2021/12/13 16:45:10;;;;;;;8.82;4.65;;;9.00;99.90;;;;;;5109524;28;20506;-81
2021/12/13 16:47:35;;;;;;;10.10;5.20;;;9.10;99.90;;;;;;5092218;28;20427;-81
2021/12/13 16:50:04;;;;;;;7.93;5.35;;;9.10;99.90;;;;;;5087047;28;20034;-81
2021/12/13 16:52:30;;;;;;;7.40;5.07;;;9.20;99.90;;;;;;5092985;28;20093;-80
2021/12/13 16:55:00;;;;;;;8.30;4.90;;;9.30;99.90;;;;;;5084269;28;20028;-81
2021/12/13 16:57:43;;;;;;;7.25;5.07;;;9.40;99.90;;;;;;5099282;28;20028;-81
2021/12/13 17:00:18;;;;;;;10.52;5.28;;;9.50;99.90;;;;;;5093876;28;20487;-80
2021/12/13 17:02:47;;;;;;;8.57;5.75;;;9.50;99.90;;;;;;5101236;28;20060;-80
2021/12/13 17:05:28;;;;;;;13.57;6.10;;;9.60;99.90;;;;;;5099610;28;20024;-81
2021/12/13 17:07:55;;;;;;;;;;;9.60;99.90;;;;;;5100508;28;20020;-81
2021/12/13 17:10:34;;;;;;;8.35;5.72;;;9.60;99.90;;;;;;5096572;28;19909;-81
2021/12/13 17:13:08;;;;;;;8.60;5.97;;;9.70;99.90;;;;;;5101740;28;20025;-80
2021/12/13 17:15:48;;;;;;;7.07;4.57;;;9.70;99.90;;;;;;5107528;28;20043;-82
2021/12/13 17:18:36;;;;;;;7.88;5.05;;;9.70;99.90;;;;;;5098420;28;20422;-83
2021/12/13 17:21:10;;;;;;;7.50;4.93;;;9.60;99.90;;;;;;5102045;28;20032;-83
2021/12/13 17:23:41;;;;;;;9.05;6.07;;;9.70;99.90;;;;;;5100003;28;20024;-82
2021/12/13 17:26:22;;;;;;;9.80;5.75;;;9.80;99.90;;;;;;5096528;28;20044;-83
2021/12/13 17:28:48;;;;;;;8.07;4.82;;;9.70;99.90;;;;;;5103608;28;20020;-83
2021/12/13 17:31:13;;;;;;;8.82;5.20;;;9.80;99.90;;;;;;5106729;28;20373;-84
2021/12/13 17:33:39;;;;;;;9.20;4.82;;;9.70;99.90;;;;;;5100374;28;20090;-83
2021/12/13 17:36:06;;;;;;;7.57;4.85;;;9.80;99.90;;;;;;5073510;28;20029;-83
2021/12/13 17:38:34;;;;;;;7.80;4.82;;;9.80;99.90;;;;;;5074600;28;20115;-84
2021/12/13 17:41:09;;;;;;;7.50;4.93;;;9.70;99.90;;;;;;5076243;28;20090;-83
2021/12/13 17:43:40;;;;;;;8.40;4.97;;;9.70;99.90;;;;;;5091387;28;20039;-84
2021/12/13 17:46:17;;;;;;;10.38;5.00;;;9.80;99.90;;;;;;5093530;28;20021;-84
2021/12/13 17:48:45;;;;;;;6.93;4.60;;;9.70;99.90;;;;;;5097323;28;20047;-83
2021/12/13 17:51:26;;;;;;;7.53;4.20;;;9.80;99.90;;;;;;5097522;28;20025;-85
2021/12/13 17:54:03;;;;;;;8.35;5.30;;;9.80;99.90;;;;;;5083618;28;20028;-83
2021/12/13 17:56:39;;;;;;;8.57;5.03;;;9.80;99.90;;;;;;5075027;28;20021;-84
2021/12/13 17:59:29;;;;;;;8.85;5.20;;;9.80;99.90;;;;;;5078216;28;20142;-84
2021/12/13 18:01:56;;;;;;;8.02;4.82;;;9.80;99.90;;;;;;5085415;28;20115;-88
2021/12/13 18:04:28;;;;;;;6.95;4.30;;;9.80;99.90;;;;;;5078557;28;20075;-88
2021/12/13 18:06:57;;;;;;;6.97;4.63;;;9.80;99.90;;;;;;5090475;28;20021;-84
2021/12/13 18:09:42;;;;;;;7.63;4.43;;;9.80;99.90;;;;;;5081537;28;20484;-83
2021/12/13 18:12:26;;;;;;;7.80;4.32;;;9.80;99.90;;;;;;5076302;28;20035;-83
2021/12/13 18:14:52;;;;;;;5.93;4.40;;;9.70;99.90;;;;;;5088537;28;20103;-83
2021/12/13 18:17:36;;;;;;;9.05;5.05;;;9.70;99.90;;;;;;5093507;28;20103;-83
2021/12/13 18:20:29;;;;;;;6.47;4.60;;;9.70;99.90;;;;;;5093566;28;20577;-83
2021/12/13 18:23:04;;;;;;;7.20;4.53;;;9.70;99.90;;;;;;5097245;28;20028;-84
2021/12/13 18:25:33;;;;;;;6.05;4.35;;;9.70;99.90;;;;;;5095477;28;20020;-83
2021/12/13 18:28:33;;;;;;;9.20;5.25;;;9.70;99.90;;;;;;5090115;28;20016;-83
2021/12/13 18:31:07;;;;;;;8.17;5.43;;;9.70;99.90;;;;;;5092164;28;20036;-84
2021/12/13 18:33:48;;;;;;;8.70;5.05;;;9.70;99.90;;;;;;5092123;28;20400;-83
2021/12/13 18:36:22;;;;;;;;;;;9.70;99.90;;;;;;5097683;28;20032;-83
2021/12/13 18:39:08;;;;;;;5.93;4.28;;;9.80;99.90;;;;;;5091925;28;20375;-84
2021/12/13 18:42:37;;;;;;;6.80;4.40;;;9.70;99.90;;;;;;5089938;28;20106;-83
2021/12/13 18:45:25;;;;;;;6.88;4.45;;;9.70;99.90;;;;;;5091595;28;20020;-83
2021/12/13 18:48:02;;;;;;;7.18;5.57;;;9.70;99.90;;;;;;5084117;28;20032;-85
2021/12/13 18:50:31;;;;;;;7.80;4.93;;;9.70;99.90;;;;;;5134745;27;20023;-83
2021/12/13 18:53:11;;;;;;;8.27;4.80;;;9.70;99.90;;;;;;5091987;28;20392;-84
2021/12/13 18:55:40;;;;;;;5.93;4.13;;;9.70;99.90;;;;;;5089440;28;20016;-84
2021/12/13 18:58:21;;;;;;;7.05;4.22;;;9.70;99.90;;;;;;5092975;28;20028;-87
2021/12/13 19:00:47;;;;;;;;;;;9.70;99.90;;;;;;5091977;28;20103;-89
2021/12/13 19:03:21;;;;;;;7.45;4.10;;;9.70;99.90;;;;;;5101819;28;19990;-81
2021/12/13 19:05:54;;;;;;;7.45;4.00;;;9.70;99.90;;;;;;5096675;28;20024;-80
2021/12/13 19:08:20;;;;;;;6.72;4.13;;;9.70;99.90;;;;;;5094804;28;20097;-81
2021/12/13 19:11:02;;;;;;;6.40;3.97;;;9.60;99.90;;;;;;5113489;28;20071;-80
2021/12/13 19:13:35;;;;;;;5.55;3.65;;;9.60;99.90;;;;;;5101983;28;20380;-83
2021/12/13 19:16:20;;;;;;;7.45;4.38;;;9.70;99.90;;;;;;5093168;28;20086;-84
2021/12/13 19:18:53;;;;;;;5.45;3.97;;;9.60;99.90;;;;;;5092868;28;20077;-83
2021/12/13 19:21:27;;;;;;;8.82;3.90;;;9.70;99.90;;;;;;5103207;28;20459;-83
2021/12/13 19:24:07;;;;;;;8.88;5.20;;;9.70;99.90;;;;;;5113220;28;20051;-83
2021/12/13 19:26:34;;;;;;;6.28;3.80;;;9.60;99.90;;;;;;5074190;28;20028;-84
2021/12/13 19:29:07;;;;;;;5.63;3.63;;;9.70;99.90;;;;;;5105888;27;20056;-83
2021/12/13 19:31:49;;;;;;;6.57;4.22;;;9.70;99.90;;;;;;5092466;28;20028;-83
2021/12/13 19:34:25;;;;;;;7.03;4.30;;;9.70;99.90;;;;;;5089441;28;20376;-84
2021/12/13 19:37:17;;;;;;;7.32;4.10;;;9.70;99.90;;;;;;5090270;28;20157;-83
2021/12/13 19:40:14;;;;;;;6.53;4.00;;;9.70;99.90;;;;;;5088033;28;20020;-83
2021/12/13 19:42:42;;;;;;;9.93;4.97;;;9.70;99.90;;;;;;5075319;28;20078;-83
2021/12/13 19:45:35;;;;;;;7.93;4.13;;;9.70;99.90;;;;;;5094366;28;20472;-83
2021/12/13 19:48:11;;;;;;;6.25;3.80;;;9.60;99.90;;;;;;5098545;28;20033;-83
2021/12/13 19:50:47;;;;;;;7.95;5.43;;;9.60;99.90;;;;;;5094433;28;20107;-82
2021/12/13 19:53:20;;;;;;;5.95;3.72;;;9.60;99.90;;;;;;5102832;28;20019;-83
2021/12/13 19:55:57;;;;;;;6.07;3.97;;;9.60;99.90;;;;;;5108286;28;20023;-84
2021/12/13 19:58:50;;;;;;;10.18;4.28;;;9.60;99.90;;;;;;5105747;28;20420;-84
2021/12/13 20:01:28;;;;;;;5.95;4.07;;;9.60;99.90;;;;;;5115404;28;20035;-83
2021/12/13 20:04:00;;;;;;;10.65;4.25;;;9.60;99.90;;;;;;5116090;28;20475;-83
2021/12/13 20:06:45;;;;;;;8.23;4.43;;;9.70;99.90;;;;;;5105339;28;20030;-83
2021/12/13 20:09:17;;;;;;;6.43;4.03;;;9.70;99.90;;;;;;5116005;28;20028;-83
2021/12/13 20:11:50;;;;;;;6.72;4.13;;;9.70;99.90;;;;;;5113143;28;20031;-89
2021/12/13 20:14:27;;;;;;;7.05;4.28;;;9.60;99.90;;;;;;5093917;28;20089;-84
2021/12/13 20:17:11;;;;;;;6.55;4.43;;;9.70;99.90;;;;;;5087858;28;20035;-84
2021/12/13 20:19:49;;;;;;;6.03;3.70;;;9.70;99.90;;;;;;5104344;28;20383;-84
2021/12/13 20:22:22;;;;;;;7.40;4.55;;;9.70;99.90;;;;;;5096202;28;20028;-84
2021/12/13 20:24:52;;;;;;;5.43;4.00;;;9.70;99.90;;;;;;5112668;28;20023;-83
2021/12/13 20:27:44;;;;;;;7.68;4.07;;;9.70;99.90;;;;;;5112154;28;20051;-83
2021/12/13 20:30:22;;;;;;;7.88;4.47;;;9.60;99.90;;;;;;5094579;28;20059;-86
2021/12/13 20:32:58;;;;;;;5.85;3.90;;;9.60;99.90;;;;;;5092010;28;20039;-83
2021/12/13 20:35:32;;;;;;;8.18;4.20;;;9.60;99.90;;;;;;5091910;28;20047;-83
2021/12/13 20:38:05;;;;;;;5.93;3.80;;;9.60;99.90;;;;;;5092469;28;20157;-83
2021/12/13 20:40:40;;;;;;;7.60;4.20;;;9.60;99.90;;;;;;5097477;28;20020;-83
2021/12/13 20:43:29;;;;;;;7.47;4.25;;;9.60;99.90;;;;;;5112813;28;20491;-84
2021/12/13 20:46:20;;;;;;;6.85;4.05;;;9.70;99.90;;;;;;5096983;28;20243;-83
2021/12/13 20:49:00;;;;;;;7.97;4.15;;;9.60;99.90;;;;;;5099580;28;20055;-83
2021/12/13 20:51:34;;;;;;;7.25;4.32;;;9.60;99.90;;;;;;5102642;28;20127;-83
2021/12/13 20:54:02;;;;;;;7.15;4.40;;;9.60;99.90;;;;;;5092571;28;20027;-84
2021/12/13 20:56:33;;;;;;;6.95;4.28;;;9.60;99.90;;;;;;5111848;28;20039;-84
2021/12/13 20:59:13;;;;;;;6.95;4.53;;;9.60;99.90;;;;;;5094227;28;20024;-84
2021/12/13 21:01:48;;;;;;;7.90;4.30;;;9.60;99.90;;;;;;5082119;28;20066;-84
2021/12/13 21:04:18;;;;;;;7.38;4.10;;;9.60;99.90;;;;;;5071199;28;20104;-84
2021/12/13 21:06:52;;;;;;;7.03;4.15;;;9.60;99.90;;;;;;5085537;28;20422;-84
2021/12/13 21:09:23;;;;;;;7.22;5.15;;;9.60;99.90;;;;;;5092117;28;20362;-84
2021/12/13 21:11:59;;;;;;;7.50;4.57;;;9.60;99.90;;;;;;5079227;28;20033;-84
2021/12/13 21:14:28;;;;;;;7.70;5.00;;;9.60;99.90;;;;;;5074294;28;20021;-84
2021/12/13 21:17:04;;;;;;;6.70;4.47;;;9.60;99.90;;;;;;5072725;28;20047;-87
2021/12/13 21:19:37;;;;;;;6.57;4.47;;;9.60;99.90;;;;;;5082342;28;20073;-84
2021/12/13 21:22:17;;;;;;;7.68;4.45;;;9.60;99.90;;;;;;5086878;28;20043;-84
2021/12/13 21:24:53;;;;;;;8.15;4.40;;;9.60;99.90;;;;;;5087033;28;20032;-84
2021/12/13 21:27:41;;;;;;;6.47;4.80;;;9.60;99.90;;;;;;5089498;28;20025;-85
2021/12/13 21:30:19;;;;;;;8.70;4.78;;;9.60;99.90;;;;;;5077251;28;20544;-86
2021/12/13 21:32:44;;;;;;;7.05;4.03;;;9.60;99.90;;;;;;5078264;28;20032;-85
2021/12/13 21:35:38;;;;;;;8.07;4.82;;;9.60;99.90;;;;;;5058847;28;20027;-86
2021/12/13 21:41:03;;;;;;;7.20;4.82;;;9.60;99.90;;;;;;5081621;28;20067;-85
2021/12/13 21:44:01;;;;;;;7.65;4.72;;;9.60;99.90;;;;;;5089126;28;20028;-84
2021/12/13 21:46:34;;;;;;;9.32;5.57;;;9.60;99.90;;;;;;5074589;28;20021;-86
2021/12/13 21:49:02;;;;;;;9.15;5.07;;;9.60;99.90;;;;;;5075309;28;20097;-84
2021/12/13 21:51:37;;;;;;;6.88;5.25;;;9.60;99.90;;;;;;5093454;28;20157;-86
2021/12/13 21:54:21;;;;;;;9.15;5.70;;;9.60;99.90;;;;;;5081461;28;20028;-84
2021/12/13 21:56:52;;;;;;;7.97;5.07;;;9.60;99.90;;;;;;5086398;28;20031;-85
2021/12/13 21:59:30;;;;;;;7.80;5.50;;;9.60;99.90;;;;;;5075560;28;20031;-83
2021/12/13 22:02:05;;;;;;;8.32;5.60;;;9.60;99.90;;;;;;5088745;28;20532;-83
2021/12/13 22:04:33;;;;;;;9.48;6.05;;;9.60;99.90;;;;;;5079053;28;20526;-84
2021/12/13 22:07:04;;;;;;;10.73;6.40;;;9.60;99.90;;;;;;5093105;28;20052;-84
2021/12/13 22:09:46;;;;;;;10.10;5.65;;;9.60;99.90;;;;;;5081249;28;20025;-84
2021/12/13 22:12:17;;;;;;;9.18;6.15;;;9.60;99.90;;;;;;5075371;28;20423;-84
2021/12/13 22:14:51;;;;;;;;;;;9.50;99.90;;;;;;5113520;27;20079;-83
2021/12/13 22:17:45;;;;;;;10.43;6.22;;;9.60;99.90;;;;;;5084269;28;19905;-84
2021/12/13 22:20:37;;;;;;;10.80;6.68;;;9.60;99.90;;;;;;5084413;28;20029;-85
2021/12/13 22:23:06;;;;;;;10.40;6.50;;;9.50;99.90;;;;;;5092296;28;20036;-84
2021/12/13 22:25:52;;;;;;;10.35;6.10;;;9.50;99.90;;;;;;5091804;28;20021;-83
2021/12/13 22:28:22;;;;;;;11.27;6.57;;;9.60;99.90;;;;;;5090408;28;20024;-83
2021/12/13 22:31:00;;;;;;;11.07;6.28;;;9.50;99.90;;;;;;5081595;28;20033;-84
2021/12/13 22:33:27;;;;;;;9.52;6.47;;;9.50;99.90;;;;;;5075268;28;20048;-83
2021/12/13 22:35:56;;;;;;;9.88;6.72;;;9.50;99.90;;;;;;5090207;28;20107;-84
2021/12/13 22:38:32;;;;;;;10.23;6.22;;;9.50;99.90;;;;;;5073488;28;20158;-86
2021/12/13 22:41:17;;;;;;;9.77;6.07;;;9.50;99.90;;;;;;5079833;28;20151;-83
2021/12/13 22:43:47;;;;;;;8.60;6.45;;;9.50;99.90;;;;;;5073605;28;20032;-83
2021/12/13 22:46:25;;;;;;;10.10;7.30;;;9.60;99.90;;;;;;5081200;28;20021;-83
2021/12/13 22:49:07;;;;;;;9.55;6.65;;;9.60;99.90;;;;;;5073895;28;20377;-83
2021/12/13 22:51:35;;;;;;;9.68;6.88;;;9.50;99.90;;;;;;5074088;28;20063;-84
2021/12/13 22:54:01;;;;;;;11.00;6.72;;;9.50;99.90;;;;;;5093623;28;20016;-84
2021/12/13 22:56:27;;;;;;;8.23;6.35;;;9.50;99.90;;;;;;5083012;28;20020;-84
2021/12/13 22:58:58;;;;;;;9.52;6.57;;;9.50;99.90;;;;;;5073035;28;20031;-81
2021/12/13 23:01:36;;;;;;;9.85;6.57;;;9.50;99.90;;;;;;5079377;28;20377;-82
2021/12/13 23:04:18;;;;;;;9.43;7.05;;;9.50;99.90;;;;;;5086380;28;20089;-84
2021/12/13 23:06:45;;;;;;;11.48;6.93;;;9.50;99.90;;;;;;5090250;28;20488;-83
2021/12/13 23:09:22;;;;;;;8.60;6.50;;;9.50;99.90;;;;;;5063862;28;20029;-83
2021/12/13 23:13:47;;;;;;;9.52;6.72;;;9.50;99.90;;;;;;5078428;28;20492;-83
2021/12/13 23:14:41;;;;;;;9.00;7.05;;;9.50;99.90;;;;;;5074295;28;20123;-83
2021/12/13 23:17:08;;;;;;;9.02;6.40;;;9.50;99.90;;;;;;5089472;28;20392;-84
2021/12/13 23:19:34;;;;;;;8.77;6.72;;;9.50;99.90;;;;;;5075839;28;20039;-85
2021/12/13 23:22:09;;;;;;;10.38;6.88;;;9.50;99.90;;;;;;5091649;28;20032;-84
2021/12/13 23:24:35;;;;;;;8.88;6.50;;;9.40;99.90;;;;;;5078757;28;20465;-83
2021/12/13 23:27:08;;;;;;;10.70;7.10;;;9.50;99.90;;;;;;5073015;28;20032;-84
2021/12/13 23:29:42;;;;;;;11.73;7.70;;;9.50;99.90;;;;;;5072895;28;20024;-82
2021/12/13 23:32:25;;;;;;;10.95;7.15;;;9.50;99.90;;;;;;5072821;28;20039;-83
2021/12/13 23:34:53;;;;;;;9.68;7.40;;;9.50;99.90;;;;;;5077315;28;20032;-83
2021/12/13 23:37:19;;;;;;;10.38;7.60;;;9.40;99.90;;;;;;5084553;28;20093;-84
2021/12/13 23:48:00;;;;;;;10.18;7.20;;;9.50;99.90;;;;;;5087391;28;20415;-83
2021/12/13 23:50:27;;;;;;;10.52;7.47;;;9.50;99.90;;;;;;5087915;28;20104;-84
2021/12/13 23:53:00;;;;;;;10.23;7.55;;;9.40;99.90;;;;;;5075062;28;20040;-83
2021/12/13 23:55:33;;;;;;;12.48;7.75;;;9.40;99.90;;;;;;5076352;28;20026;-88
2021/12/13 23:58:04;;;;;;;11.55;7.75;;;9.50;99.90;;;;;;5073844;28;20020;-84
